createdAt,value
2022-12-15T00:02:17.739Z,-5.90
2022-12-15T00:05:03.292Z,-5.90
2022-12-15T00:07:48.638Z,-5.90
2022-12-15T00:10:34.192Z,-5.90
2022-12-15T00:13:19.462Z,-5.90
2022-12-15T00:16:06.110Z,-5.90
2022-12-15T00:18:51.408Z,-5.90
2022-12-15T00:21:36.674Z,-5.90
2022-12-15T00:24:21.920Z,-5.90
2022-12-15T00:27:07.177Z,-5.90
2022-12-15T00:29:52.312Z,-5.90
2022-12-15T00:32:38.827Z,-5.90
2022-12-15T00:35:24.565Z,-5.90
2022-12-15T00:38:09.682Z,-5.80
2022-12-15T00:40:37.427Z,-5.80
2022-12-15T00:43:05.354Z,-5.80
2022-12-15T00:45:47.102Z,-5.80
2022-12-15T00:48:16.634Z,-5.80
2022-12-15T00:50:53.928Z,-5.70
2022-12-15T00:53:39.838Z,-5.70
2022-12-15T00:56:25.549Z,-5.70
2022-12-15T00:59:10.740Z,-5.60
2022-12-15T01:01:56.673Z,-5.60
2022-12-15T01:04:43.734Z,-5.60
2022-12-15T01:07:29.330Z,-5.60
2022-12-15T01:10:14.452Z,-5.60
2022-12-15T01:12:59.958Z,-5.60
2022-12-15T01:15:45.607Z,-5.50
2022-12-15T01:18:31.536Z,-5.50
2022-12-15T01:21:02.554Z,-5.50
2022-12-15T01:23:31.468Z,-5.50
2022-12-15T01:25:59.536Z,-5.50
2022-12-15T01:28:27.302Z,-5.50
2022-12-15T01:30:55.516Z,-5.50
2022-12-15T01:33:23.745Z,-5.50
2022-12-15T01:36:02.040Z,-5.50
2022-12-15T01:38:30.737Z,-5.50
2022-12-15T01:41:02.128Z,-5.40
2022-12-15T01:43:33.139Z,-5.40
2022-12-15T01:46:06.796Z,-5.40
2022-12-15T01:48:39.837Z,-5.40
2022-12-15T01:51:14.264Z,-5.40
2022-12-15T01:53:46.386Z,-5.30
2022-12-15T01:56:18.546Z,-5.30
2022-12-15T01:58:48.450Z,-5.30
2022-12-15T02:01:16.424Z,-5.30
2022-12-15T02:03:45.844Z,-5.30
2022-12-15T02:06:16.002Z,-5.20
2022-12-15T02:08:48.142Z,-5.20
2022-12-15T02:11:49.507Z,-5.20
2022-12-15T02:14:24.559Z,-5.20
2022-12-15T02:17:08.332Z,-5.20
2022-12-15T02:20:04.497Z,-5.20
2022-12-15T02:22:48.738Z,-5.20
2022-12-15T02:25:34.442Z,-5.20
2022-12-15T02:28:04.987Z,-5.10
2022-12-15T02:30:45.036Z,-5.10
2022-12-15T02:33:21.405Z,-5.00
2022-12-15T02:35:57.115Z,-5.00
2022-12-15T02:38:33.224Z,-4.90
2022-12-15T02:41:01.772Z,-4.90
2022-12-15T02:43:31.416Z,-4.90
2022-12-15T02:46:12.296Z,-4.90
2022-12-15T02:48:50.307Z,-4.90
2022-12-15T02:51:32.687Z,-4.80
2022-12-15T02:54:14.316Z,-4.80
2022-12-15T02:56:49.749Z,-4.80
2022-12-15T02:59:24.293Z,-4.70
2022-12-15T03:01:58.167Z,-4.70
2022-12-15T03:04:27.441Z,-4.70
2022-12-15T03:07:00.935Z,-4.70
2022-12-15T03:09:29.481Z,-4.70
2022-12-15T03:11:57.356Z,-4.70
2022-12-15T03:14:26.360Z,-4.70
2022-12-15T03:16:55.931Z,-4.70
2022-12-15T03:19:24.183Z,-4.60
2022-12-15T03:21:51.922Z,-4.60
2022-12-15T03:24:20.048Z,-4.60
2022-12-15T03:26:49.889Z,-4.60
2022-12-15T03:29:18.002Z,-4.50
2022-12-15T03:31:46.245Z,-4.50
2022-12-15T03:34:18.938Z,-4.50
2022-12-15T03:36:46.748Z,-4.40
2022-12-15T03:39:14.510Z,-4.50
2022-12-15T03:41:42.415Z,-4.40
2022-12-15T03:44:10.446Z,-4.40
2022-12-15T03:46:38.183Z,-4.40
2022-12-15T03:49:06.094Z,-4.40
2022-12-15T03:51:35.136Z,-4.30
2022-12-15T03:54:02.875Z,-4.30
2022-12-15T03:56:30.673Z,-4.30
2022-12-15T03:58:58.375Z,-4.30
2022-12-15T04:01:29.016Z,-4.20
2022-12-15T04:04:00.885Z,-4.20
2022-12-15T04:06:29.725Z,-4.20
2022-12-15T04:08:58.969Z,-4.20
2022-12-15T04:11:26.700Z,-4.10
2022-12-15T04:13:54.439Z,-4.10
2022-12-15T04:16:22.218Z,-4.10
2022-12-15T04:19:10.835Z,-4.10
2022-12-15T04:21:37.611Z,-4.00
2022-12-15T04:24:24.999Z,-3.90
2022-12-15T04:27:10.779Z,-4.00
2022-12-15T04:29:55.993Z,-4.00
2022-12-15T04:32:42.368Z,-4.00
2022-12-15T04:35:29.149Z,-4.00
2022-12-15T04:38:14.337Z,-4.00
2022-12-15T04:41:01.234Z,-3.90
2022-12-15T04:43:46.430Z,-3.90
2022-12-15T04:46:31.829Z,-3.90
2022-12-15T04:49:16.954Z,-3.90
2022-12-15T04:52:02.371Z,-3.90
2022-12-15T04:54:47.608Z,-3.80
2022-12-15T04:57:34.301Z,-3.80
2022-12-15T05:00:19.424Z,-3.80
2022-12-15T05:03:04.782Z,-3.80
2022-12-15T05:05:50.016Z,-3.80
2022-12-15T05:08:35.477Z,-3.80
2022-12-15T05:11:20.723Z,-3.80
2022-12-15T05:14:07.277Z,-3.80
2022-12-15T05:16:52.551Z,-3.80
2022-12-15T05:19:37.886Z,-3.80
2022-12-15T05:22:23.175Z,-3.80
2022-12-15T05:25:08.337Z,-3.80
2022-12-15T05:27:53.626Z,-3.80
2022-12-15T05:30:40.234Z,-3.80
2022-12-15T05:33:08.249Z,-3.80
2022-12-15T05:35:35.965Z,-3.80
2022-12-15T05:38:05.331Z,-3.80
2022-12-15T05:40:33.135Z,-3.80
2022-12-15T05:43:01.541Z,-3.80
2022-12-15T05:45:30.605Z,-3.80
2022-12-15T05:47:58.767Z,-3.80
2022-12-15T05:50:26.550Z,-3.80
2022-12-15T05:52:55.565Z,-3.80
2022-12-15T05:55:23.285Z,-3.80
2022-12-15T05:57:53.248Z,-3.80
2022-12-15T06:00:21.367Z,-3.70
2022-12-15T06:02:50.594Z,-3.70
2022-12-15T06:05:18.549Z,-3.70
2022-12-15T06:07:46.347Z,-3.70
2022-12-15T06:10:14.116Z,-3.70
2022-12-15T06:12:41.868Z,-3.70
2022-12-15T06:15:10.526Z,-3.70
2022-12-15T06:17:38.274Z,-3.70
2022-12-15T06:20:08.577Z,-3.70
2022-12-15T06:22:36.300Z,-3.70
2022-12-15T06:25:04.317Z,-3.70
2022-12-15T06:27:32.036Z,-3.70
2022-12-15T06:29:59.788Z,-3.70
2022-12-15T06:32:27.977Z,-3.70
2022-12-15T06:34:55.713Z,-3.60
2022-12-15T06:37:24.796Z,-3.70
2022-12-15T06:39:52.517Z,-3.70
2022-12-15T06:42:20.561Z,-3.70
2022-12-15T06:44:48.549Z,-3.80
2022-12-15T06:47:18.322Z,-3.80
2022-12-15T06:49:46.039Z,-3.80
2022-12-15T06:52:13.783Z,-3.80
2022-12-15T06:54:43.021Z,-3.80
2022-12-15T06:57:10.809Z,-3.80
2022-12-15T06:59:39.058Z,-3.70
2022-12-15T07:02:07.690Z,-3.70
2022-12-15T07:04:35.510Z,-3.70
2022-12-15T07:07:03.273Z,-3.70
2022-12-15T07:09:31.038Z,-3.70
2022-12-15T07:12:00.113Z,-3.70
2022-12-15T07:14:28.071Z,-3.70
2022-12-15T07:16:55.793Z,-3.70
2022-12-15T07:19:23.532Z,-3.70
2022-12-15T07:21:51.220Z,-3.70
2022-12-15T07:24:18.898Z,-3.70
2022-12-15T07:26:48.908Z,-3.70
2022-12-15T07:29:23.222Z,-3.70
2022-12-15T07:31:51.477Z,-3.80
2022-12-15T07:34:19.376Z,-3.80
2022-12-15T07:36:51.775Z,-3.80
2022-12-15T07:39:20.266Z,-3.80
2022-12-15T07:41:48.218Z,-3.80
2022-12-15T07:44:16.067Z,-3.80
2022-12-15T07:46:46.760Z,-3.80
2022-12-15T07:49:14.539Z,-3.80
2022-12-15T07:51:42.285Z,-3.80
2022-12-15T07:54:11.329Z,-3.80
2022-12-15T07:56:39.577Z,-3.80
2022-12-15T07:59:07.775Z,-3.80
2022-12-15T08:01:36.147Z,-3.80
2022-12-15T08:04:05.868Z,-3.90
2022-12-15T08:06:33.657Z,-3.90
2022-12-15T08:09:01.398Z,-3.90
2022-12-15T08:11:29.273Z,-4.00
2022-12-15T08:14:06.958Z,-4.10
2022-12-15T08:16:38.512Z,-4.10
2022-12-15T08:19:09.852Z,-4.10
2022-12-15T08:21:40.012Z,-4.10
2022-12-15T08:24:08.657Z,-4.10
2022-12-15T08:26:37.812Z,-4.10
2022-12-15T08:31:54.978Z,-4.00
2022-12-15T08:34:24.116Z,-4.00
2022-12-15T08:36:51.880Z,-4.00
2022-12-15T08:39:20.423Z,-4.00
2022-12-15T08:41:48.351Z,-4.00
2022-12-15T08:44:16.872Z,-4.00
2022-12-15T08:46:44.749Z,-4.00
2022-12-15T08:49:15.359Z,-3.90
2022-12-15T08:51:50.024Z,-3.90
2022-12-15T08:54:19.089Z,-3.90
2022-12-15T08:56:46.824Z,-3.80
2022-12-15T08:59:14.569Z,-3.80
2022-12-15T09:01:43.271Z,-3.80
2022-12-15T09:04:11.109Z,-3.80
2022-12-15T09:06:39.034Z,-3.80
2022-12-15T09:09:11.690Z,-3.70
2022-12-15T09:11:39.745Z,-3.70
2022-12-15T09:14:07.957Z,-3.70
2022-12-15T09:16:35.916Z,-3.70
2022-12-15T09:19:04.148Z,-3.60
2022-12-15T09:21:32.061Z,-3.60
2022-12-15T09:24:01.981Z,-3.60
2022-12-15T09:26:33.433Z,-3.50
2022-12-15T09:29:02.677Z,-3.50
2022-12-15T09:31:32.602Z,-3.50
2022-12-15T09:34:01.862Z,-3.50
2022-12-15T09:36:32.283Z,-3.40
2022-12-15T09:39:01.827Z,-3.50
2022-12-15T09:41:33.344Z,-3.40
2022-12-15T09:44:04.124Z,-3.40
2022-12-15T09:46:42.840Z,-3.50
2022-12-15T09:49:21.989Z,-3.50
2022-12-15T09:52:10.696Z,-3.50
2022-12-15T09:54:41.423Z,-3.50
2022-12-15T09:57:17.414Z,-3.50
2022-12-15T10:00:00.621Z,-3.50
2022-12-15T10:02:50.903Z,-3.50
2022-12-15T10:06:06.062Z,-3.50
2022-12-15T10:08:22.927Z,-3.40
2022-12-15T10:10:56.095Z,-3.30
2022-12-15T10:13:31.758Z,-3.20
2022-12-15T10:16:04.213Z,-3.10
2022-12-15T10:18:38.193Z,-3.20
2022-12-15T10:21:06.256Z,-3.20
2022-12-15T10:23:37.423Z,-3.20
2022-12-15T10:26:20.286Z,-3.10
2022-12-15T10:29:09.650Z,-3.10
2022-12-15T10:31:45.850Z,-3.10
2022-12-15T10:34:25.452Z,-3.00
2022-12-15T10:36:54.412Z,-3.00
2022-12-15T10:39:23.562Z,-2.90
2022-12-15T10:42:14.780Z,-2.90
2022-12-15T10:44:50.287Z,-2.90
2022-12-15T10:47:22.493Z,-2.80
2022-12-15T10:49:51.189Z,-2.80
2022-12-15T10:52:28.538Z,-2.80
2022-12-15T10:54:56.851Z,-2.70
2022-12-15T10:57:30.432Z,-2.70
2022-12-15T11:00:29.482Z,-2.70
2022-12-15T11:02:58.293Z,-2.70
2022-12-15T11:05:27.400Z,-2.70
2022-12-15T11:07:56.546Z,-2.70
2022-12-15T11:10:26.259Z,-2.70
2022-12-15T11:12:59.342Z,-2.70
2022-12-15T11:15:45.257Z,-2.60
2022-12-15T11:18:39.104Z,-2.70
2022-12-15T11:21:12.739Z,-2.60
2022-12-15T11:23:52.240Z,-2.60
2022-12-15T11:26:30.813Z,-2.60
2022-12-15T11:29:02.543Z,-2.50
2022-12-15T11:31:37.840Z,-2.50
2022-12-15T11:34:12.591Z,-2.40
2022-12-15T11:36:59.643Z,-2.40
2022-12-15T11:39:42.633Z,-2.40
2022-12-15T11:42:15.815Z,-2.40
2022-12-15T11:44:55.122Z,-2.30
2022-12-15T11:47:34.716Z,-2.30
2022-12-15T11:50:17.206Z,-2.20
2022-12-15T11:53:18.800Z,-2.20
2022-12-15T11:55:54.218Z,-2.20
2022-12-15T11:58:45.039Z,-2.20
2022-12-15T12:01:27.220Z,-2.20
2022-12-15T12:04:05.298Z,-2.10
2022-12-15T12:06:39.222Z,-2.10
2022-12-15T12:09:21.393Z,-2.10
2022-12-15T12:11:55.324Z,-2.10
2022-12-15T12:14:37.883Z,-2.10
2022-12-15T12:17:12.168Z,-2.00
2022-12-15T12:19:45.071Z,-1.90
2022-12-15T12:22:24.591Z,-1.90
2022-12-15T12:24:56.426Z,-1.90
2022-12-15T12:27:29.819Z,-1.90
2022-12-15T12:30:03.442Z,-1.90
2022-12-15T12:32:40.283Z,-1.90
2022-12-15T12:38:05.407Z,-1.90
2022-12-15T12:40:46.723Z,-1.90
2022-12-15T12:43:34.106Z,-1.90
2022-12-15T12:46:07.907Z,-1.90
2022-12-15T12:48:39.407Z,-1.90
2022-12-15T12:51:30.596Z,-1.90
2022-12-15T12:54:00.939Z,-1.90
2022-12-15T12:56:36.012Z,-1.90
2022-12-15T12:59:08.611Z,-1.90
2022-12-15T13:01:38.491Z,-1.90
2022-12-15T13:04:09.496Z,-1.90
2022-12-15T13:07:08.912Z,-1.90
2022-12-15T13:09:42.526Z,-1.90
2022-12-15T13:12:51.201Z,-1.90
2022-12-15T13:15:37.258Z,-1.90
2022-12-15T13:18:13.346Z,-1.80
2022-12-15T13:20:41.505Z,-1.80
2022-12-15T13:23:37.583Z,-1.80
2022-12-15T13:26:15.880Z,-1.80
2022-12-15T13:28:46.583Z,-1.90
2022-12-15T13:31:42.904Z,-1.90
2022-12-15T13:34:28.514Z,-1.90
2022-12-15T13:37:01.127Z,-1.90
2022-12-15T13:39:56.951Z,-1.90
2022-12-15T13:42:43.096Z,-1.90
2022-12-15T13:45:51.504Z,-1.90
2022-12-15T13:48:27.451Z,-1.90
2022-12-15T13:51:03.071Z,-1.90
2022-12-15T13:53:39.259Z,-1.90
2022-12-15T13:56:24.399Z,-1.90
2022-12-15T13:59:00.151Z,-1.90
2022-12-15T14:01:33.153Z,-2.00
2022-12-15T14:04:07.048Z,-2.00
2022-12-15T14:06:42.367Z,-2.00
2022-12-15T14:09:14.925Z,-2.00
2022-12-15T14:11:53.271Z,-2.00
2022-12-15T14:14:25.659Z,-2.00
2022-12-15T14:16:59.420Z,-2.00
2022-12-15T14:19:32.030Z,-2.00
2022-12-15T14:22:02.672Z,-2.10
2022-12-15T14:24:40.404Z,-2.00
2022-12-15T14:27:09.837Z,-2.10
2022-12-15T14:29:37.654Z,-2.10
2022-12-15T14:32:06.452Z,-2.10
2022-12-15T14:34:39.065Z,-2.10
2022-12-15T14:37:11.577Z,-2.10
2022-12-15T14:39:43.585Z,-2.10
2022-12-15T14:42:17.326Z,-2.10
2022-12-15T14:47:36.448Z,-2.10
2022-12-15T14:50:10.816Z,-2.10
2022-12-15T14:52:41.003Z,-2.20
2022-12-15T14:55:29.896Z,-2.20
2022-12-15T14:58:00.122Z,-2.20
2022-12-15T15:00:31.074Z,-2.20
2022-12-15T15:03:06.024Z,-2.10
2022-12-15T15:03:09.800Z,-1.90
2022-12-15T15:03:35.197Z,-2.30
2022-12-15T15:06:06.719Z,-2.30
2022-12-15T15:08:37.617Z,-2.30
2022-12-15T15:11:24.908Z,-2.30
2022-12-15T15:13:57.485Z,-2.40
2022-12-15T15:16:25.714Z,-2.40
2022-12-15T15:18:56.973Z,-2.40
2022-12-15T15:21:27.963Z,-2.40
2022-12-15T15:24:00.363Z,-2.50
2022-12-15T15:26:29.416Z,-2.50
2022-12-15T15:28:58.538Z,-2.50
2022-12-15T15:31:40.810Z,-2.50
2022-12-15T15:34:11.171Z,-2.60
2022-12-15T15:36:40.011Z,-2.60
2022-12-15T15:39:14.944Z,-2.60
2022-12-15T15:41:43.280Z,-2.70
2022-12-15T15:44:15.584Z,-2.70
2022-12-15T15:46:48.333Z,-2.70
2022-12-15T15:49:19.379Z,-2.70
2022-12-15T15:51:47.108Z,-2.80
2022-12-15T15:54:17.468Z,-2.80
2022-12-15T15:56:45.240Z,-2.80
2022-12-15T15:59:16.467Z,-2.90
2022-12-15T16:01:44.876Z,-2.90
2022-12-15T16:04:12.854Z,-2.90
2022-12-15T16:06:46.705Z,-3.00
2022-12-15T16:09:16.684Z,-3.00
2022-12-15T16:11:45.458Z,-3.00
2022-12-15T16:14:15.777Z,-3.00
2022-12-15T16:16:43.827Z,-3.10
2022-12-15T16:19:11.898Z,-3.10
2022-12-15T16:21:40.894Z,-3.10
2022-12-15T16:24:12.172Z,-3.10
2022-12-15T16:26:47.151Z,-3.10
2022-12-15T16:29:18.663Z,-3.10
2022-12-15T16:31:46.576Z,-3.10
2022-12-15T16:34:16.253Z,-3.10
2022-12-15T16:36:44.647Z,-3.20
2022-12-15T16:39:25.743Z,-3.20
2022-12-15T16:41:55.209Z,-3.20
2022-12-15T16:44:24.925Z,-3.30
2022-12-15T16:46:53.266Z,-3.30
2022-12-15T16:49:21.242Z,-3.30
2022-12-15T16:51:51.988Z,-3.40
2022-12-15T16:54:22.789Z,-3.40
2022-12-15T16:56:51.997Z,-3.50
2022-12-15T16:59:33.000Z,-3.50
2022-12-15T17:02:03.953Z,-3.60
2022-12-15T17:04:31.789Z,-3.60
2022-12-15T17:06:59.552Z,-3.60
2022-12-15T17:09:27.496Z,-3.70
2022-12-15T17:11:55.245Z,-3.70
2022-12-15T17:14:23.010Z,-3.70
2022-12-15T17:16:50.743Z,-3.70
2022-12-15T17:19:21.482Z,-3.80
2022-12-15T17:21:53.425Z,-3.80
2022-12-15T17:24:22.464Z,-3.90
2022-12-15T17:26:50.737Z,-3.90
2022-12-15T17:29:22.170Z,-3.90
2022-12-15T17:31:50.311Z,-3.90
2022-12-15T17:34:27.991Z,-4.00
2022-12-15T17:36:56.181Z,-4.00
2022-12-15T17:39:24.174Z,-4.00
2022-12-15T17:42:07.385Z,-4.00
2022-12-15T17:44:38.335Z,-4.10
2022-12-15T17:47:08.531Z,-4.20
2022-12-15T17:49:39.215Z,-4.20
2022-12-15T17:52:17.054Z,-4.20
2022-12-15T17:54:44.951Z,-4.20
2022-12-15T17:57:13.424Z,-4.20
2022-12-15T17:59:41.284Z,-4.30
2022-12-15T18:02:12.069Z,-4.30
2022-12-15T18:04:41.572Z,-4.30
2022-12-15T18:07:16.128Z,-4.40
2022-12-15T18:09:44.016Z,-4.40
2022-12-15T18:12:18.768Z,-4.50
2022-12-15T18:14:46.633Z,-4.50
2022-12-15T18:17:14.673Z,-4.60
2022-12-15T18:19:43.773Z,-4.70
2022-12-15T18:22:14.180Z,-4.70
2022-12-15T18:24:42.160Z,-4.70
2022-12-15T18:27:20.543Z,-4.70
2022-12-15T18:29:48.264Z,-4.70
2022-12-15T18:32:16.779Z,-4.70
2022-12-15T18:34:46.512Z,-4.70
2022-12-15T18:37:16.792Z,-4.70
2022-12-15T18:39:44.961Z,-4.80
2022-12-15T18:42:15.594Z,-4.80
2022-12-15T18:44:46.852Z,-4.80
2022-12-15T18:47:17.323Z,-4.80
2022-12-15T18:49:46.492Z,-4.80
2022-12-15T18:52:17.582Z,-4.90
2022-12-15T18:54:45.688Z,-4.90
2022-12-15T18:57:29.542Z,-4.90
2022-12-15T18:59:59.609Z,-5.00
2022-12-15T19:02:27.476Z,-5.00
2022-12-15T19:04:56.771Z,-5.10
2022-12-15T19:07:24.520Z,-5.10
2022-12-15T19:09:52.318Z,-5.10
2022-12-15T19:12:20.113Z,-5.20
2022-12-15T19:14:49.356Z,-5.20
2022-12-15T19:17:36.586Z,-5.30
2022-12-15T19:20:25.512Z,-5.30
2022-12-15T19:22:53.648Z,-5.40
2022-12-15T19:27:49.263Z,-5.40
2022-12-15T19:30:18.999Z,-5.40
2022-12-15T19:32:46.734Z,-5.50
2022-12-15T19:35:15.915Z,-5.50
2022-12-15T19:37:45.372Z,-5.50
2022-12-15T19:40:22.055Z,-5.50
2022-12-15T19:42:52.714Z,-5.50
2022-12-15T19:45:23.139Z,-5.50
2022-12-15T19:47:50.902Z,-5.50
2022-12-15T19:50:22.310Z,-5.60
2022-12-15T19:52:53.150Z,-5.60
2022-12-15T19:55:25.493Z,-5.60
2022-12-15T19:57:53.421Z,-5.60
2022-12-15T20:00:23.122Z,-5.60
2022-12-15T20:02:51.932Z,-5.60
2022-12-15T20:05:22.205Z,-5.60
2022-12-15T20:07:51.160Z,-5.60
2022-12-15T20:10:25.907Z,-5.60
2022-12-15T20:12:57.846Z,-5.60
2022-12-15T20:15:27.049Z,-5.60
2022-12-15T20:17:56.540Z,-5.60
2022-12-15T20:20:28.672Z,-5.70
2022-12-15T20:22:58.856Z,-5.70
2022-12-15T20:25:28.929Z,-5.70
2022-12-15T20:27:57.311Z,-5.70
2022-12-15T20:30:26.813Z,-5.70
2022-12-15T20:32:55.060Z,-5.70
2022-12-15T20:35:25.209Z,-5.80
2022-12-15T20:37:53.361Z,-5.80
2022-12-15T20:40:24.150Z,-5.80
2022-12-15T20:42:52.286Z,-5.80
2022-12-15T20:45:23.008Z,-5.90
2022-12-15T20:47:52.880Z,-5.90
2022-12-15T20:50:33.289Z,-5.90
2022-12-15T20:53:01.288Z,-5.90
2022-12-15T20:55:29.063Z,-5.90
2022-12-15T20:57:56.836Z,-5.90
2022-12-15T21:00:24.636Z,-6.00
2022-12-15T21:02:54.862Z,-6.00
2022-12-15T21:05:25.086Z,-6.00
2022-12-15T21:07:54.149Z,-6.10
2022-12-15T21:10:22.637Z,-6.10
2022-12-15T21:12:51.258Z,-6.10
2022-12-15T21:15:23.234Z,-6.20
2022-12-15T21:18:11.109Z,-6.20
2022-12-15T21:20:42.045Z,-6.30
2022-12-15T21:23:20.765Z,-6.30
2022-12-15T21:25:48.697Z,-6.30
2022-12-15T21:28:16.539Z,-6.30
2022-12-15T21:30:44.915Z,-6.40
2022-12-15T21:33:12.795Z,-6.40
2022-12-15T21:35:42.247Z,-6.40
2022-12-15T21:38:31.129Z,-6.40
2022-12-15T21:41:01.216Z,-6.50
2022-12-15T21:43:31.465Z,-6.50
2022-12-15T21:46:00.555Z,-6.50
2022-12-15T21:48:45.786Z,-6.50
2022-12-15T21:51:15.960Z,-6.50
2022-12-15T21:53:46.852Z,-6.50
2022-12-15T21:56:16.386Z,-6.50
2022-12-15T21:58:44.218Z,-6.50
2022-12-15T22:01:15.280Z,-6.50
2022-12-15T22:03:45.880Z,-6.50
2022-12-15T22:06:19.036Z,-6.60
2022-12-15T22:08:48.751Z,-6.60
2022-12-15T22:11:22.258Z,-6.60
2022-12-15T22:13:51.245Z,-6.60
2022-12-15T22:16:20.162Z,-6.60
2022-12-15T22:18:51.907Z,-6.60
2022-12-15T22:21:19.703Z,-6.60
2022-12-15T22:23:48.842Z,-6.60
2022-12-15T22:26:22.040Z,-6.60
2022-12-15T22:28:50.899Z,-6.60
2022-12-15T22:31:19.860Z,-6.60
2022-12-15T22:33:47.658Z,-6.60
2022-12-15T22:36:15.406Z,-6.70
2022-12-15T22:38:43.313Z,-6.70
2022-12-15T22:41:20.381Z,-6.70
2022-12-15T22:43:52.102Z,-6.70
2022-12-15T22:46:22.101Z,-6.70
2022-12-15T22:48:50.495Z,-6.80
2022-12-15T22:51:19.793Z,-6.80
2022-12-15T22:53:47.794Z,-6.80
2022-12-15T22:56:24.681Z,-6.70
2022-12-15T22:58:56.313Z,-6.70
2022-12-15T23:01:25.342Z,-6.70
2022-12-15T23:03:53.354Z,-6.70
2022-12-15T23:06:24.064Z,-6.70
2022-12-15T23:08:55.839Z,-6.70
2022-12-15T23:11:41.180Z,-6.80
2022-12-15T23:14:10.753Z,-6.80
2022-12-15T23:16:38.233Z,-6.90
2022-12-15T23:19:07.593Z,-6.90
2022-12-15T23:21:36.626Z,-6.90
2022-12-15T23:24:04.569Z,-6.90
2022-12-15T23:26:33.765Z,-6.90
2022-12-15T23:29:01.493Z,-6.90
2022-12-15T23:31:29.295Z,-7.00
2022-12-15T23:33:57.185Z,-7.00
2022-12-15T23:36:25.033Z,-7.00
2022-12-15T23:38:54.989Z,-7.00
2022-12-15T23:41:22.804Z,-7.10
2022-12-15T23:43:51.875Z,-7.10
2022-12-15T23:46:19.658Z,-7.10
2022-12-15T23:48:47.427Z,-7.10
2022-12-15T23:51:16.735Z,-7.10
2022-12-15T23:53:45.859Z,-7.10
2022-12-15T23:56:15.700Z,-7.20
2022-12-15T23:58:44.886Z,-7.20
